Terminal Aerodrome Forecast
Issued by NWS

Home | Current Version | Previous Version | Text Only | Print | Product List | Glossary On
Versions: 1 2 3 4 5 6 7 8 9 10 11 12 13 14 15 16 17 18
000
FTUS46 KPDT 240520
TAFYKM
TAF
KYKM 240520Z 2406/2506 32006KT P6SM SCT090 BKN120
     FM241200 30008G15KT P6SM SCT120
     FM242100 28008G15KT P6SM VCSH SCT080 SCT250=

USA.gov is the U.S. government's official web portal to all federal, state and local government web resources and services.